Time;durP1;ratioP1;P1;durP2;ratioP2;P2;SDS_P1;SDS_P2;PMS_P1;PMS_P2;Temp;Humidity;BMP_temperature;BMP_pressure;BME280_temperature;BME280_humidity;BME280_pressure;Samples;Min_cycle;Max_cycle;Signal;HPM_P1;HPM_P2
2023/01/05 00:00:14;;;;;;;8.10;1.40;;;8.30;99.90;;;;;;7405011;19;19918;-73
2023/01/05 00:02:43;;;;;;;17.52;3.00;;;8.30;99.90;;;;;;7406920;19;19914;-72
2023/01/05 00:05:12;;;;;;;12.07;1.95;;;8.30;99.90;;;;;;7405150;19;19926;-74
2023/01/05 00:07:42;;;;;;;8.27;1.98;;;8.30;99.90;;;;;;7407731;19;19918;-72
2023/01/05 00:22:29;;;;;;;6.32;2.47;;;8.20;99.90;;;;;;7405430;19;19939;-72
2023/01/05 00:24:08;;;;;;;4.68;1.42;;;8.40;99.90;;;;;;7406770;19;19919;-72
2023/01/05 00:26:37;;;;;;;10.63;2.35;;;8.10;99.90;;;;;;7404141;19;19918;-72
2023/01/05 00:29:08;;;;;;;12.20;2.13;;;8.20;99.90;;;;;;7403058;19;19915;-72
2023/01/05 00:31:37;;;;;;;4.45;1.40;;;8.10;99.90;;;;;;7405717;19;20023;-72
2023/01/05 00:34:06;;;;;;;8.32;1.40;;;8.20;99.90;;;;;;7402931;19;19921;-72
2023/01/05 00:36:35;;;;;;;10.80;1.63;;;8.20;99.90;;;;;;7403259;19;20391;-72
2023/01/05 00:39:05;;;;;;;6.25;1.45;;;8.20;99.90;;;;;;7404067;19;19922;-72
2023/01/05 00:41:35;;;;;;;9.10;2.03;;;8.20;99.90;;;;;;7405556;19;19974;-72
2023/01/05 00:44:04;;;;;;;5.88;1.92;;;8.20;99.90;;;;;;7403804;19;20267;-73
2023/01/05 00:46:36;;;;;;;8.95;1.80;;;8.20;99.90;;;;;;7405235;19;19926;-72
2023/01/05 00:49:04;;;;;;;8.85;1.20;;;8.30;99.90;;;;;;7406088;19;20253;-72
2023/01/05 00:51:33;;;;;;;7.57;1.77;;;8.20;99.90;;;;;;7405627;19;19921;-72
2023/01/05 00:54:02;;;;;;;10.73;1.73;;;8.30;99.90;;;;;;7404225;19;20372;-72
2023/01/05 00:56:32;;;;;;;5.60;2.42;;;8.20;99.90;;;;;;7405213;19;19922;-72
2023/01/05 00:59:01;;;;;;;8.30;1.40;;;8.20;99.90;;;;;;7403456;19;20375;-72
2023/01/05 01:01:30;;;;;;;6.28;1.23;;;8.10;99.90;;;;;;7401002;19;19990;-73
2023/01/05 01:04:02;;;;;;;8.60;1.60;;;8.10;99.90;;;;;;7404774;19;19918;-72
2023/01/05 01:06:31;;;;;;;7.47;1.15;;;8.10;99.90;;;;;;7403234;19;19934;-73
2023/01/05 01:09:00;;;;;;;10.55;1.48;;;8.20;99.90;;;;;;7405279;19;20028;-72
2023/01/05 01:11:30;;;;;;;10.32;1.35;;;8.10;99.90;;;;;;7404331;19;19922;-72
2023/01/05 01:14:00;;;;;;;7.68;1.58;;;8.10;99.90;;;;;;7406966;19;19925;-73
2023/01/05 01:16:29;;;;;;;7.32;1.40;;;6.80;99.90;;;;;;7411601;19;19918;-73
2023/01/05 01:18:58;;;;;;;8.80;1.88;;;8.20;99.90;;;;;;7409227;19;19929;-73
2023/01/05 01:21:30;;;;;;;10.30;2.13;;;8.10;99.90;;;;;;7411089;19;19918;-72
2023/01/05 01:23:59;;;;;;;4.88;1.15;;;8.10;99.90;;;;;;7411242;19;19940;-73
2023/01/05 01:26:28;;;;;;;12.75;2.35;;;8.10;99.90;;;;;;7411533;19;19922;-72
2023/01/05 01:29:05;;;;;;;13.55;2.47;;;8.20;99.90;;;;;;7409404;19;19951;-72
2023/01/05 01:31:34;;;;;;;14.55;2.47;;;8.20;99.90;;;;;;7409750;19;19925;-72
2023/01/05 01:34:03;;;;;;;10.93;2.25;;;8.10;99.90;;;;;;7407962;19;19922;-72
2023/01/05 01:36:34;;;;;;;12.65;2.25;;;8.20;99.90;;;;;;7408050;19;19923;-72
2023/01/05 01:39:03;;;;;;;11.43;2.55;;;8.20;99.90;;;;;;7409787;19;19925;-72
2023/01/05 01:41:32;;;;;;;10.77;1.60;;;8.20;99.90;;;;;;7406618;19;20360;-72
2023/01/05 01:44:04;;;;;;;18.88;2.92;;;8.20;99.90;;;;;;7406020;19;19922;-72
2023/01/05 01:46:33;;;;;;;16.08;2.67;;;8.20;99.90;;;;;;7410203;19;19922;-72
2023/01/05 01:49:07;;;;;;;19.83;3.83;;;8.20;99.90;;;;;;7408787;19;19931;-73
2023/01/05 01:51:43;;;;;;;18.20;2.40;;;8.10;99.90;;;;;;7407419;19;19960;-72
2023/01/05 01:54:20;;;;;;;11.32;2.58;;;8.20;99.90;;;;;;7408115;19;19952;-72
2023/01/05 01:56:53;;;;;;;7.63;1.95;;;8.20;99.90;;;;;;7407787;19;19919;-72
2023/01/05 01:59:22;;;;;;;15.98;2.30;;;8.40;99.90;;;;;;7410047;19;19946;-72
2023/01/05 02:01:56;;;;;;;;;;;8.20;99.90;;;;;;7412868;19;19926;-72
2023/01/05 02:04:32;;;;;;;18.10;2.25;;;8.50;99.90;;;;;;7409299;19;20322;-72
2023/01/05 02:07:05;;;;;;;13.10;2.97;;;8.30;99.90;;;;;;7409536;19;19954;-72
2023/01/05 02:09:34;;;;;;;8.32;1.67;;;8.30;99.90;;;;;;7409001;19;20313;-72
2023/01/05 02:12:12;;;;;;;7.18;1.73;;;8.40;99.90;;;;;;7409200;19;19947;-72
2023/01/05 02:14:51;;;;;;;11.75;2.05;;;8.30;99.90;;;;;;7408755;19;20332;-72
2023/01/05 02:17:27;;;;;;;11.75;2.20;;;8.20;99.90;;;;;;7409421;19;20003;-72
2023/01/05 02:20:35;;;;;;;10.23;1.65;;;8.20;99.90;;;;;;7408690;19;20366;-72
2023/01/05 02:23:37;;;;;;;7.45;1.83;;;8.30;99.90;;;;;;7409487;19;19922;-72
2023/01/05 02:26:31;;;;;;;12.18;2.08;;;8.20;99.90;;;;;;7409402;19;19930;-72
2023/01/05 02:29:36;;;;;;;18.10;3.17;;;8.40;99.90;;;;;;7408333;19;19947;-72
2023/01/05 02:32:15;;;;;;;13.38;2.30;;;8.30;99.90;;;;;;7404551;19;20446;-72
2023/01/05 02:34:52;;;;;;;11.85;2.38;;;8.40;99.90;;;;;;7405761;19;19915;-72
2023/01/05 02:37:28;;;;;;;14.90;2.08;;;8.30;99.90;;;;;;7409549;19;19925;-72
2023/01/05 02:40:01;;;;;;;10.82;1.80;;;8.30;99.90;;;;;;7406605;19;19915;-72
2023/01/05 02:42:33;;;;;;;10.50;2.55;;;8.40;99.90;;;;;;7405436;19;19923;-72
2023/01/05 02:45:05;;;;;;;9.98;2.05;;;8.40;99.90;;;;;;7408242;19;19933;-72
2023/01/05 02:47:44;;;;;;;11.80;2.50;;;8.40;99.90;;;;;;7409329;19;19922;-72
2023/01/05 02:50:20;;;;;;;7.00;1.60;;;8.30;99.90;;;;;;7405239;19;19919;-72
2023/01/05 02:52:57;;;;;;;13.57;2.38;;;8.30;99.90;;;;;;7405294;19;19914;-72
2023/01/05 02:55:31;;;;;;;9.85;1.90;;;8.30;99.90;;;;;;7406876;19;20279;-71
2023/01/05 02:58:05;;;;;;;14.70;2.30;;;8.30;99.90;;;;;;7406327;19;19926;-72
2023/01/05 03:00:40;;;;;;;11.82;2.25;;;8.30;99.90;;;;;;7402695;19;19929;-73
2023/01/05 03:03:18;;;;;;;12.48;2.88;;;8.40;99.90;;;;;;7405000;19;19922;-71
2023/01/05 03:05:55;;;;;;;11.48;2.35;;;8.30;99.90;;;;;;7408860;19;20349;-71
2023/01/05 03:08:25;;;;;;;14.60;2.30;;;8.40;99.90;;;;;;7407682;19;19958;-72
2023/01/05 03:13:48;;;;;;;11.23;1.92;;;8.30;99.90;;;;;;7407235;19;19925;-71
2023/01/05 03:16:24;;;;;;;14.40;2.75;;;8.40;99.90;;;;;;7407183;19;19934;-71
2023/01/05 03:35:33;;;;;;;11.45;2.28;;;8.30;99.90;;;;;;7406256;19;19960;-72
2023/01/05 03:38:12;;;;;;;9.50;1.98;;;8.40;99.90;;;;;;7404963;19;19922;-71
2023/01/05 03:40:42;;;;;;;15.60;2.35;;;8.30;99.90;;;;;;7405330;19;19941;-72
2023/01/05 03:43:11;;;;;;;12.20;2.30;;;8.40;99.90;;;;;;7404856;19;19929;-72
2023/01/05 03:45:44;;;;;;;10.98;1.95;;;8.40;99.90;;;;;;7406841;19;19922;-71
2023/01/05 03:48:13;;;;;;;8.55;2.95;;;8.30;99.90;;;;;;7405975;19;20292;-71
2023/01/05 03:50:45;;;;;;;13.32;2.42;;;8.30;99.90;;;;;;7404178;19;19915;-71
2023/01/05 03:53:14;;;;;;;21.13;2.53;;;8.30;99.90;;;;;;7404374;19;19918;-71
2023/01/05 03:55:43;;;;;;;16.95;2.15;;;8.30;99.90;;;;;;7403687;19;19923;-72
2023/01/05 03:58:12;;;;;;;9.65;2.35;;;8.30;99.90;;;;;;7405359;19;19930;-72
2023/01/05 04:00:40;;;;;;;13.93;2.58;;;8.30;99.90;;;;;;7404927;19;19978;-71
2023/01/05 04:03:10;;;;;;;19.60;2.70;;;8.40;99.90;;;;;;7406910;19;19923;-72
2023/01/05 04:05:39;;;;;;;10.60;2.63;;;8.30;99.90;;;;;;7404877;19;19918;-71
2023/01/05 04:08:11;;;;;;;11.73;1.88;;;8.30;99.90;;;;;;7405460;19;20261;-71
2023/01/05 04:10:40;;;;;;;11.98;2.58;;;8.20;99.90;;;;;;7405169;19;19918;-72
2023/01/05 04:13:09;;;;;;;11.23;1.77;;;8.30;99.90;;;;;;7406339;19;20270;-72
2023/01/05 04:15:38;;;;;;;14.60;2.13;;;8.30;99.90;;;;;;7405098;19;19922;-71
2023/01/05 04:18:07;;;;;;;12.55;2.38;;;8.30;99.90;;;;;;7403095;19;19925;-71
2023/01/05 04:20:36;;;;;;;12.68;2.35;;;8.20;99.90;;;;;;7404594;19;19918;-72
2023/01/05 04:23:05;;;;;;;14.90;2.10;;;8.30;99.90;;;;;;7404611;19;19946;-71
2023/01/05 04:25:37;;;;;;;14.80;2.70;;;8.20;99.90;;;;;;7404612;19;20329;-72
2023/01/05 04:28:06;;;;;;;13.18;2.47;;;8.00;99.90;;;;;;7401465;19;19919;-72
2023/01/05 04:30:35;;;;;;;16.95;1.85;;;8.10;99.90;;;;;;7402927;19;20288;-71
2023/01/05 04:33:04;;;;;;;14.40;2.85;;;8.10;99.90;;;;;;7404894;19;19915;-72
2023/01/05 04:35:33;;;;;;;19.00;2.85;;;6.30;99.90;;;;;;7401908;19;19921;-71
2023/01/05 04:38:02;;;;;;;11.32;2.17;;;8.20;99.90;;;;;;7403713;19;19941;-71
2023/01/05 04:40:31;;;;;;;9.15;2.72;;;8.10;99.90;;;;;;7404374;19;19942;-72
2023/01/05 04:43:03;;;;;;;8.27;1.90;;;8.10;99.90;;;;;;7405608;19;19918;-71
2023/01/05 04:45:32;;;;;;;11.95;1.83;;;8.20;99.90;;;;;;7403845;19;19915;-72
2023/01/05 04:48:02;;;;;;;9.13;1.73;;;8.10;99.90;;;;;;7401537;19;20353;-72
2023/01/05 04:50:30;;;;;;;10.13;2.10;;;8.20;99.90;;;;;;7403561;19;19961;-72
2023/01/05 04:53:00;;;;;;;14.70;2.42;;;8.30;99.90;;;;;;7405077;19;19937;-72
2023/01/05 04:55:29;;;;;;;8.85;1.90;;;8.20;99.90;;;;;;7405376;19;20257;-72
2023/01/05 04:57:58;;;;;;;7.32;1.70;;;8.30;99.90;;;;;;7400006;19;19935;-72
2023/01/05 05:00:34;;;;;;;20.02;3.35;;;8.30;99.90;;;;;;7405070;19;19982;-72
2023/01/05 05:03:03;;;;;;;7.90;1.20;;;8.30;99.90;;;;;;7405493;19;19929;-71
2023/01/05 05:05:32;;;;;;;13.15;2.50;;;8.40;99.90;;;;;;7404417;19;19915;-72
2023/01/05 05:08:01;;;;;;;14.73;2.53;;;8.30;99.90;;;;;;7403989;19;20282;-71
2023/01/05 05:10:30;;;;;;;13.23;3.42;;;8.30;99.90;;;;;;7402657;19;20378;-72
2023/01/05 05:12:59;;;;;;;8.77;1.90;;;8.30;99.90;;;;;;7404502;19;19926;-71
2023/01/05 05:15:31;;;;;;;9.05;2.35;;;8.30;99.90;;;;;;7405944;19;19941;-73
2023/01/05 05:18:00;;;;;;;11.82;1.95;;;8.30;99.90;;;;;;7404539;19;19915;-72
2023/01/05 05:20:30;;;;;;;11.40;2.13;;;8.20;99.90;;;;;;7403774;19;19926;-73
2023/01/05 05:22:59;;;;;;;11.43;1.90;;;8.30;99.90;;;;;;7403906;19;19925;-73
2023/01/05 05:25:28;;;;;;;11.40;2.10;;;8.30;99.90;;;;;;7404500;19;19915;-72
2023/01/05 05:27:59;;;;;;;14.25;2.10;;;8.30;99.90;;;;;;7405591;19;19923;-72
2023/01/05 05:30:31;;;;;;;11.57;2.65;;;8.30;99.90;;;;;;7404702;19;19925;-72
2023/01/05 05:33:00;;;;;;;14.05;1.88;;;8.50;99.90;;;;;;7402090;19;19951;-73
2023/01/05 05:35:29;;;;;;;10.70;2.00;;;8.40;99.90;;;;;;7404794;19;19915;-73
2023/01/05 05:37:58;;;;;;;15.60;2.65;;;8.40;99.90;;;;;;7403334;19;19990;-72
2023/01/05 05:40:27;;;;;;;10.48;2.00;;;8.20;99.90;;;;;;7402765;19;19978;-72
2023/01/05 05:42:57;;;;;;;11.23;2.38;;;8.40;99.90;;;;;;7402567;19;19921;-73
2023/01/05 05:45:26;;;;;;;15.32;2.50;;;8.40;99.90;;;;;;7403601;19;19918;-72
2023/01/05 05:47:59;;;;;;;12.60;2.70;;;8.30;99.90;;;;;;7401606;19;20459;-72
2023/01/05 05:50:29;;;;;;;8.85;2.33;;;8.50;99.90;;;;;;7401119;19;19956;-72
2023/01/05 05:52:58;;;;;;;10.73;1.42;;;8.40;99.90;;;;;;7402421;19;20362;-72
2023/01/05 05:55:26;;;;;;;13.43;2.45;;;8.30;99.90;;;;;;7401203;19;20017;-73
2023/01/05 05:57:55;;;;;;;11.98;1.75;;;8.30;99.90;;;;;;7398163;19;19923;-72
2023/01/05 06:00:25;;;;;;;8.63;1.92;;;8.30;99.90;;;;;;7406633;19;19933;-72
2023/01/05 06:02:57;;;;;;;10.73;2.72;;;8.20;99.90;;;;;;7410236;19;19923;-72
2023/01/05 06:05:26;;;;;;;13.93;2.05;;;8.10;99.90;;;;;;7409979;19;19930;-73
2023/01/05 06:07:55;;;;;;;13.07;2.33;;;8.00;99.90;;;;;;7408046;19;19915;-72
2023/01/05 06:10:24;;;;;;;13.40;1.88;;;8.20;99.90;;;;;;7409398;19;19950;-72
2023/01/05 06:12:55;;;;;;;9.18;1.63;;;8.10;99.90;;;;;;7408694;19;19927;-72
2023/01/05 06:15:24;;;;;;;8.85;1.58;;;8.20;99.90;;;;;;7408459;19;20004;-72
2023/01/05 06:17:58;;;;;;;5.93;1.55;;;8.20;99.90;;;;;;7410010;19;19918;-72
2023/01/05 06:20:27;;;;;;;19.75;3.00;;;8.10;99.90;;;;;;7408585;19;20294;-72
2023/01/05 06:22:56;;;;;;;9.68;2.65;;;8.20;99.90;;;;;;7410847;19;19935;-72
2023/01/05 06:25:25;;;;;;;13.52;2.78;;;8.20;99.90;;;;;;7408655;19;19922;-73
2023/01/05 06:27:54;;;;;;;14.55;2.60;;;8.10;99.90;;;;;;7407848;19;19915;-73
2023/01/05 06:30:24;;;;;;;11.57;1.88;;;8.10;99.90;;;;;;7408990;19;19939;-73
2023/01/05 06:32:53;;;;;;;13.13;2.92;;;8.10;99.90;;;;;;7406921;19;19934;-73
2023/01/05 06:35:24;;;;;;;16.20;2.45;;;8.20;99.90;;;;;;7407989;19;19926;-73
2023/01/05 06:37:54;;;;;;;14.07;2.28;;;8.00;99.90;;;;;;7407558;19;19922;-73
2023/01/05 06:40:23;;;;;;;14.43;3.45;;;8.10;99.90;;;;;;7406139;19;19925;-73
2023/01/05 06:42:52;;;;;;;16.08;2.63;;;8.20;99.90;;;;;;7408320;19;20662;-73
2023/01/05 06:45:21;;;;;;;10.07;2.00;;;8.20;99.90;;;;;;7408026;19;19978;-73
2023/01/05 06:47:50;;;;;;;9.93;1.92;;;7.90;99.90;;;;;;7409533;19;20398;-73
2023/01/05 06:50:19;;;;;;;9.63;1.92;;;7.90;99.90;;;;;;7409403;19;19923;-73
2023/01/05 06:52:50;;;;;;;16.58;2.40;;;8.00;99.90;;;;;;7406870;19;19918;-73
2023/01/05 06:55:20;;;;;;;15.38;3.55;;;7.90;99.90;;;;;;7408097;19;19918;-73
2023/01/05 06:57:49;;;;;;;8.15;1.60;;;7.90;99.90;;;;;;7404047;19;19986;-73
2023/01/05 07:00:19;;;;;;;8.93;1.73;;;7.90;99.90;;;;;;7407741;19;19922;-73
2023/01/05 07:02:48;;;;;;;10.55;2.15;;;7.90;99.90;;;;;;7408676;19;19914;-73
2023/01/05 07:05:18;;;;;;;12.48;3.03;;;7.90;99.90;;;;;;7407005;19;19935;-73
2023/01/05 07:07:50;;;;;;;12.82;2.90;;;8.00;99.90;;;;;;7408966;19;19922;-72
2023/01/05 07:10:19;;;;;;;11.13;2.30;;;8.00;99.90;;;;;;7405947;19;20274;-73
2023/01/05 07:12:48;;;;;;;7.25;1.70;;;7.90;99.90;;;;;;7400334;19;19923;-73
2023/01/05 07:15:17;;;;;;;10.60;2.15;;;8.00;99.90;;;;;;7409306;19;19919;-73
2023/01/05 07:17:46;;;;;;;14.13;2.60;;;8.00;99.90;;;;;;7408404;19;19943;-72
2023/01/05 07:20:15;;;;;;;8.57;1.55;;;7.90;99.90;;;;;;7407672;19;19929;-73
2023/01/05 07:22:44;;;;;;;8.27;1.85;;;8.00;99.90;;;;;;7407133;19;19982;-73
2023/01/05 07:25:16;;;;;;;6.88;1.90;;;8.00;99.90;;;;;;7407383;19;19935;-72
2023/01/05 07:27:46;;;;;;;12.88;2.40;;;8.00;99.90;;;;;;7404975;19;19938;-73
2023/01/05 07:30:21;;;;;;;11.15;2.40;;;8.00;99.90;;;;;;7408730;19;20448;-73
2023/01/05 07:32:53;;;;;;;14.77;2.10;;;8.10;99.90;;;;;;7406665;19;19925;-72
2023/01/05 07:35:22;;;;;;;10.45;2.00;;;7.90;99.90;;;;;;7407254;19;19942;-71
2023/01/05 07:37:52;;;;;;;11.95;2.08;;;7.90;99.90;;;;;;7408311;19;19935;-72
2023/01/05 07:40:43;;;;;;;18.98;3.30;;;8.60;99.90;;;;;;7404811;19;19930;-72
2023/01/05 07:43:34;;;;;;;11.10;1.95;;;8.00;99.90;;;;;;7405630;19;20265;-72
2023/01/05 07:46:23;;;;;;;10.55;2.28;;;8.00;99.90;;;;;;7404686;19;19915;-72
2023/01/05 07:49:12;;;;;;;9.32;1.75;;;7.90;99.90;;;;;;7402960;19;19929;-72
2023/01/05 07:52:00;;;;;;;8.02;2.00;;;8.00;99.90;;;;;;7402497;19;19937;-72
2023/01/05 07:54:49;;;;;;;15.02;2.95;;;7.90;99.90;;;;;;7402719;19;19924;-72
2023/01/05 07:57:41;;;;;;;15.30;1.83;;;7.90;99.90;;;;;;7404246;19;19927;-74
2023/01/05 08:00:17;;;;;;;9.70;1.80;;;8.10;99.90;;;;;;7403207;19;20264;-72
2023/01/05 08:02:51;;;;;;;8.65;1.90;;;7.80;99.90;;;;;;7404129;19;19923;-72
2023/01/05 08:05:21;;;;;;;10.68;2.45;;;7.90;99.90;;;;;;7405009;19;19934;-72
2023/01/05 08:07:50;;;;;;;12.65;2.72;;;8.00;99.90;;;;;;7406427;19;19946;-71
2023/01/05 08:10:31;;;;;;;8.02;1.77;;;8.00;99.90;;;;;;7403474;19;19954;-72
2023/01/05 08:15:48;;;;;;;16.08;2.30;;;8.00;99.90;;;;;;7407758;19;19930;-72
2023/01/05 08:18:17;;;;;;;10.70;1.77;;;8.00;99.90;;;;;;7404890;19;19923;-72
2023/01/05 08:20:52;;;;;;;10.88;2.58;;;8.10;99.90;;;;;;7402944;19;19926;-73
2023/01/05 08:23:22;;;;;;;11.55;2.83;;;8.10;99.90;;;;;;7405836;19;19914;-73
2023/01/05 08:25:52;;;;;;;11.68;1.80;;;8.20;99.90;;;;;;7404479;19;19925;-72
2023/01/05 08:28:23;;;;;;;10.43;1.60;;;8.10;99.90;;;;;;7402446;19;21427;-73
2023/01/05 08:30:52;;;;;;;7.70;1.67;;;8.10;99.90;;;;;;7406705;19;20265;-73
2023/01/05 08:33:21;;;;;;;14.88;1.77;;;8.20;99.90;;;;;;7401800;19;19951;-72
2023/01/05 08:35:51;;;;;;;14.38;2.05;;;8.10;99.90;;;;;;7404441;19;19947;-72
2023/01/05 08:38:22;;;;;;;9.23;2.33;;;8.00;99.90;;;;;;7403454;19;19934;-73
2023/01/05 08:40:53;;;;;;;8.25;1.58;;;8.00;99.90;;;;;;7409579;19;19922;-72
2023/01/05 08:43:24;;;;;;;9.23;2.20;;;8.00;99.90;;;;;;7406993;19;20551;-73
2023/01/05 08:45:53;;;;;;;11.10;2.25;;;8.00;99.90;;;;;;7407051;19;19933;-72
2023/01/05 08:48:22;;;;;;;10.80;1.70;;;8.10;99.90;;;;;;7404671;19;20287;-72
2023/01/05 08:50:54;;;;;;;;;;;8.10;99.90;;;;;;7406951;19;19942;-72
2023/01/05 08:53:23;;;;;;;10.60;1.77;;;8.10;99.90;;;;;;7402458;19;20399;-72
2023/01/05 08:55:52;;;;;;;8.95;2.05;;;8.10;99.90;;;;;;7405204;19;19915;-72
2023/01/05 08:58:24;;;;;;;11.13;2.47;;;8.20;99.90;;;;;;7403274;19;20340;-72
2023/01/05 09:00:53;;;;;;;9.77;1.90;;;8.10;99.90;;;;;;7403312;19;19918;-72
2023/01/05 09:03:22;;;;;;;11.35;2.17;;;8.10;99.90;;;;;;7403092;19;19986;-72
2023/01/05 09:05:58;;;;;;;12.30;2.72;;;8.10;99.90;;;;;;7402544;19;19918;-72
2023/01/05 09:08:27;;;;;;;11.63;2.63;;;8.10;99.90;;;;;;7404485;19;20333;-72
2023/01/05 09:10:56;;;;;;;7.40;1.73;;;8.10;99.90;;;;;;7403473;19;19915;-73
2023/01/05 09:13:28;;;;;;;9.45;1.70;;;8.10;99.90;;;;;;7402066;19;19946;-73
2023/01/05 09:15:57;;;;;;;10.95;2.92;;;8.20;99.90;;;;;;7404475;19;19939;-72
2023/01/05 09:18:26;;;;;;;15.15;4.75;;;8.10;99.90;;;;;;7401408;19;19936;-73
2023/01/05 09:20:57;;;;;;;10.18;1.65;;;8.20;99.90;;;;;;7401614;19;19939;-74
2023/01/05 09:23:26;;;;;;;10.52;2.03;;;8.10;99.90;;;;;;7404343;19;20341;-72
2023/01/05 09:25:56;;;;;;;13.30;4.25;;;8.00;99.90;;;;;;7399835;19;20268;-75
2023/01/05 09:28:28;;;;;;;12.40;2.05;;;7.90;99.90;;;;;;7398729;19;19923;-74
2023/01/05 09:30:57;;;;;;;12.40;4.38;;;7.90;99.90;;;;;;7402108;19;19937;-74
2023/01/05 09:33:26;;;;;;;7.28;1.33;;;7.90;99.90;;;;;;7396804;19;19922;-72
2023/01/05 09:35:56;;;;;;;8.65;1.23;;;7.90;99.90;;;;;;7407464;19;19910;-74
2023/01/05 09:38:26;;;;;;;11.70;1.50;;;8.00;99.90;;;;;;7409117;19;20277;-74
2023/01/05 09:40:59;;;;;;;3.78;1.50;;;8.00;99.90;;;;;;7407227;19;19938;-75
2023/01/05 09:43:39;;;;;;;8.45;1.50;;;7.90;99.90;;;;;;7406188;19;20332;-73
2023/01/05 09:46:13;;;;;;;11.80;2.10;;;8.00;99.90;;;;;;7408138;19;19925;-71
2023/01/05 09:48:45;;;;;;;4.93;1.60;;;8.00;99.90;;;;;;7407797;19;19918;-71
2023/01/05 09:51:15;;;;;;;7.90;1.23;;;8.00;99.90;;;;;;7407716;19;19929;-71
2023/01/05 09:53:44;;;;;;;9.10;2.05;;;7.90;99.90;;;;;;7404895;19;19926;-71
2023/01/05 09:56:23;;;;;;;3.45;1.25;;;7.90;99.90;;;;;;7407579;19;19936;-74
2023/01/05 09:58:57;;;;;;;9.98;2.33;;;7.90;99.90;;;;;;7407222;19;20332;-72
2023/01/05 10:01:26;;;;;;;7.40;1.60;;;7.90;99.90;;;;;;7408133;19;19931;-73
2023/01/05 10:04:02;;;;;;;9.05;1.77;;;7.90;99.90;;;;;;7406113;19;19922;-70
2023/01/05 10:06:34;;;;;;;5.53;1.58;;;8.00;99.90;;;;;;7404410;19;19922;-76
2023/01/05 10:09:06;;;;;;;8.48;1.27;;;7.90;99.90;;;;;;7407812;19;19918;-75
2023/01/05 10:14:33;;;;;;;7.20;1.02;;;8.00;99.90;;;;;;7407300;19;19947;-77
2023/01/05 10:17:02;;;;;;;7.32;1.38;;;7.90;99.90;;;;;;7407608;19;19940;-75
2023/01/05 10:19:32;;;;;;;8.60;1.27;;;8.00;99.90;;;;;;7406888;19;20256;-71
2023/01/05 10:22:12;;;;;;;5.47;1.38;;;7.90;99.90;;;;;;7406726;19;19914;-73
2023/01/05 10:24:52;;;;;;;6.53;0.90;;;7.90;99.90;;;;;;7407625;19;19919;-77
2023/01/05 10:27:29;;;;;;;4.97;1.35;;;8.00;99.90;;;;;;7405217;19;19925;-72
2023/01/05 10:30:11;;;;;;;9.15;2.08;;;8.00;99.90;;;;;;7400248;19;19942;-74
2023/01/05 10:32:51;;;;;;;8.00;1.60;;;7.90;99.90;;;;;;7406379;19;19914;-82
2023/01/05 10:35:37;;;;;;;10.15;1.23;;;7.90;99.90;;;;;;7406513;19;19914;-81
2023/01/05 10:38:17;;;;;;;7.10;1.45;;;8.20;99.90;;;;;;7409577;19;19941;-77
2023/01/05 10:40:56;;;;;;;5.10;1.23;;;8.00;99.90;;;;;;7406654;19;19929;-79
2023/01/05 10:43:41;;;;;;;9.02;1.85;;;8.00;99.90;;;;;;7406866;19;19994;-78
2023/01/05 10:46:15;;;;;;;7.35;1.60;;;8.10;99.90;;;;;;7406388;19;20001;-78
2023/01/05 10:48:44;;;;;;;10.20;2.67;;;8.00;99.90;;;;;;7317158;19;19915;-71
2023/01/05 10:51:13;;;;;;;6.18;1.33;;;8.20;99.90;;;;;;7402335;19;19932;-78
2023/01/05 10:53:44;;;;;;;16.42;1.90;;;8.10;99.90;;;;;;7402533;19;20250;-77
2023/01/05 10:56:17;;;;;;;6.63;1.60;;;8.10;99.90;;;;;;7405887;19;19957;-77
2023/01/05 10:58:47;;;;;;;5.90;1.98;;;8.30;99.90;;;;;;7404017;19;19922;-82
2023/01/05 11:01:26;;;;;;;14.68;1.45;;;8.20;99.90;;;;;;7403146;19;20257;-81
2023/01/05 11:03:58;;;;;;;6.78;1.20;;;8.20;99.90;;;;;;7406240;19;20272;-81
2023/01/05 11:06:30;;;;;;;4.45;0.98;;;8.30;99.90;;;;;;7406271;19;19919;-83
2023/01/05 11:09:08;;;;;;;3.45;0.90;;;8.20;99.90;;;;;;7407587;19;20377;-80
2023/01/05 11:11:38;;;;;;;4.45;1.20;;;8.10;99.90;;;;;;7408223;19;19918;-83
2023/01/05 11:14:13;;;;;;;7.13;1.50;;;8.10;99.90;;;;;;7407573;19;20317;-79
2023/01/05 11:16:51;;;;;;;4.75;0.73;;;8.20;99.90;;;;;;7406290;19;20485;-79
2023/01/05 11:19:26;;;;;;;5.85;2.08;;;8.30;99.90;;;;;;7405163;19;20340;-79
2023/01/05 11:21:55;;;;;;;17.95;4.85;;;8.30;99.90;;;;;;7405532;19;19922;-79
2023/01/05 11:24:33;;;;;;;10.63;1.52;;;8.30;99.90;;;;;;7407064;19;20302;-82
2023/01/05 11:27:04;;;;;;;8.57;1.38;;;8.40;99.90;;;;;;7404578;19;19929;-78
2023/01/05 11:29:33;;;;;;;;;;;8.20;99.90;;;;;;7405717;19;19966;-77
2023/01/05 11:32:08;;;;;;;10.75;1.20;;;8.30;99.90;;;;;;7403125;19;19922;-78
2023/01/05 11:34:41;;;;;;;10.07;2.35;;;8.20;99.90;;;;;;7404561;19;20353;-79
2023/01/05 11:37:25;;;;;;;5.57;1.30;;;8.20;99.90;;;;;;7401670;19;19958;-78
2023/01/05 11:39:57;;;;;;;6.97;2.13;;;8.20;99.90;;;;;;7404674;19;19918;-79
2023/01/05 11:42:34;;;;;;;11.27;2.00;;;8.30;99.90;;;;;;7407344;19;20252;-80
2023/01/05 11:45:05;;;;;;;25.83;6.93;;;8.20;99.90;;;;;;7405426;19;19926;-78
2023/01/05 11:47:39;;;;;;;5.15;1.40;;;8.20;99.90;;;;;;7407917;19;19930;-80
2023/01/05 11:50:18;;;;;;;11.20;1.73;;;8.20;99.90;;;;;;7407699;19;19974;-77
2023/01/05 11:52:48;;;;;;;7.13;1.17;;;8.30;99.90;;;;;;7407121;19;19919;-76
2023/01/05 11:55:33;;;;;;;7.38;2.10;;;8.10;99.90;;;;;;7410180;19;19918;-77
2023/01/05 11:58:25;;;;;;;14.57;3.65;;;8.30;99.90;;;;;;7411670;19;19950;-81
2023/01/05 12:01:20;;;;;;;5.57;1.20;;;8.30;99.90;;;;;;7411613;19;19978;-78
2023/01/05 12:04:03;;;;;;;6.10;1.30;;;8.20;99.90;;;;;;7413339;19;19923;-77
2023/01/05 12:06:55;;;;;;;9.98;1.38;;;8.30;99.90;;;;;;7407598;19;19994;-76
2023/01/05 12:09:30;;;;;;;15.02;5.35;;;8.40;99.90;;;;;;7402839;19;19928;-79
2023/01/05 12:12:19;;;;;;;4.32;1.63;;;8.30;99.90;;;;;;7406019;19;20292;-77
2023/01/05 12:15:06;;;;;;;5.28;1.10;;;8.40;99.90;;;;;;7402618;19;19963;-76
2023/01/05 12:17:44;;;;;;;9.40;1.65;;;8.30;99.90;;;;;;7399291;19;20309;-81
2023/01/05 12:20:35;;;;;;;7.30;1.45;;;8.40;99.90;;;;;;7402977;19;19918;-80
2023/01/05 12:23:27;;;;;;;5.65;1.40;;;8.30;99.90;;;;;;7401453;19;19922;-82
2023/01/05 12:26:03;;;;;;;11.07;1.30;;;8.40;99.90;;;;;;7401970;19;19919;-78
2023/01/05 12:29:33;;;;;;;13.80;1.33;;;8.40;99.90;;;;;;7403706;19;19915;-79
2023/01/05 12:32:16;;;;;;;9.98;1.65;;;8.40;99.90;;;;;;7398250;19;20333;-84
2023/01/05 12:35:14;;;;;;;9.77;1.77;;;8.40;99.90;;;;;;7401823;19;19926;-84
2023/01/05 12:38:02;;;;;;;7.32;2.08;;;8.40;99.90;;;;;;7400399;19;19918;-77
2023/01/05 12:40:48;;;;;;;7.03;1.05;;;8.30;99.90;;;;;;7400527;19;20329;-79
2023/01/05 12:43:27;;;;;;;7.40;2.17;;;8.30;99.90;;;;;;7397881;19;20240;-80
2023/01/05 12:46:14;;;;;;;5.60;1.35;;;8.20;99.90;;;;;;7402715;19;19919;-81
2023/01/05 12:48:59;;;;;;;5.63;1.25;;;8.20;99.90;;;;;;7407100;19;20258;-81
2023/01/05 12:51:34;;;;;;;6.80;1.48;;;8.20;99.90;;;;;;7404637;19;19974;-80
2023/01/05 12:54:24;;;;;;;8.82;1.10;;;8.40;99.90;;;;;;7407581;19;19935;-81
2023/01/05 12:56:59;;;;;;;8.07;1.35;;;8.30;99.90;;;;;;7403724;19;19915;-80
2023/01/05 12:59:33;;;;;;;6.93;1.65;;;8.30;99.90;;;;;;7403663;19;20248;-80
2023/01/05 13:02:12;;;;;;;6.35;1.40;;;8.10;99.90;;;;;;7405963;19;19919;-81
2023/01/05 13:04:44;;;;;;;7.93;2.40;;;8.30;99.90;;;;;;7402722;19;19922;-80
2023/01/05 13:07:17;;;;;;;;;;;8.40;99.90;;;;;;7403922;19;20238;-81
2023/01/05 13:09:54;;;;;;;9.05;1.50;;;8.40;99.90;;;;;;7407647;19;19915;-81
2023/01/05 13:12:23;;;;;;;5.88;1.15;;;8.40;99.90;;;;;;7409589;19;19920;-81
2023/01/05 13:15:03;;;;;;;8.27;1.00;;;8.40;99.90;;;;;;7411091;19;20264;-81
2023/01/05 13:17:38;;;;;;;6.00;1.27;;;8.40;99.90;;;;;;7409782;19;20238;-80
2023/01/05 13:20:32;;;;;;;6.68;1.13;;;8.50;99.90;;;;;;7416277;19;19914;-80
2023/01/05 13:23:06;;;;;;;8.50;1.27;;;8.50;99.90;;;;;;7409735;19;19915;-81
2023/01/05 13:25:49;;;;;;;9.98;1.13;;;8.50;99.90;;;;;;7409804;19;19919;-81
2023/01/05 13:28:23;;;;;;;9.25;1.60;;;8.50;99.90;;;;;;7407591;19;20238;-80
2023/01/05 13:31:17;;;;;;;8.18;1.08;;;8.50;99.90;;;;;;7410365;19;19911;-80
2023/01/05 13:34:14;;;;;;;8.00;1.67;;;8.50;99.90;;;;;;7408113;19;20004;-80
2023/01/05 13:37:08;;;;;;;14.25;2.22;;;8.60;99.90;;;;;;7411617;19;20340;-80
2023/01/05 13:39:49;;;;;;;6.50;1.10;;;8.60;99.90;;;;;;7409209;19;20336;-80
2023/01/05 13:42:36;;;;;;;6.60;1.23;;;8.50;99.90;;;;;;7408804;19;19947;-80
2023/01/05 13:46:00;;;;;;;5.05;1.20;;;8.60;99.90;;;;;;7408439;19;19952;-81
2023/01/05 13:48:54;;;;;;;13.23;1.23;;;8.50;99.90;;;;;;7406707;19;19919;-80
2023/01/05 13:51:43;;;;;;;4.22;1.25;;;8.50;99.90;;;;;;7405149;19;19919;-81
2023/01/05 13:54:16;;;;;;;2.17;0.70;;;8.40;99.90;;;;;;7406455;19;20255;-81
2023/01/05 13:56:47;;;;;;;4.25;1.00;;;8.40;99.90;;;;;;7408631;19;19918;-80
2023/01/05 13:59:29;;;;;;;3.45;1.02;;;8.50;99.90;;;;;;7410034;19;19938;-80
2023/01/05 14:02:00;;;;;;;8.30;1.05;;;8.50;99.90;;;;;;7405806;19;20003;-79
2023/01/05 14:04:31;;;;;;;3.88;1.08;;;8.40;99.90;;;;;;7410319;19;19994;-77